createdAt,value
2023-05-24T00:00:13.448Z,21.72
2023-05-24T00:01:26.303Z,23.63
2023-05-24T00:02:29.663Z,21.92
2023-05-24T00:03:35.501Z,24.59
2023-05-24T00:04:38.957Z,21.72
2023-05-24T00:05:42.365Z,21.80
2023-05-24T00:06:45.794Z,22.29
2023-05-24T00:07:49.038Z,23.33
2023-05-24T00:08:52.306Z,22.61
2023-05-24T00:09:55.646Z,21.15
2023-05-24T00:10:58.864Z,20.84
2023-05-24T00:12:02.171Z,22.18
2023-05-24T00:13:05.564Z,24.41
2023-05-24T00:14:08.863Z,22.55
2023-05-24T00:15:12.276Z,20.31
2023-05-24T00:16:16.195Z,23.70
2023-05-24T00:17:19.635Z,22.49
2023-05-24T00:18:22.927Z,22.00
2023-05-24T00:19:26.485Z,26.43
2023-05-24T00:20:29.813Z,24.60
2023-05-24T00:21:36.139Z,20.97
2023-05-24T00:22:40.616Z,20.96
2023-05-24T00:23:44.798Z,23.70
2023-05-24T00:24:49.033Z,23.77
2023-05-24T00:25:53.037Z,19.55
2023-05-24T00:26:56.485Z,21.46
2023-05-24T00:27:59.734Z,22.39
2023-05-24T00:29:03.054Z,22.72
2023-05-24T00:30:07.673Z,21.43
2023-05-24T00:31:11.057Z,22.21
2023-05-24T00:32:14.499Z,21.31
2023-05-24T00:33:18.536Z,23.46
2023-05-24T00:34:22.290Z,22.43
2023-05-24T00:35:25.617Z,19.90
2023-05-24T00:36:29.994Z,21.77
2023-05-24T00:37:33.913Z,21.38
2023-05-24T00:38:38.565Z,22.30
2023-05-24T00:39:42.212Z,21.93
2023-05-24T00:40:46.781Z,23.23
2023-05-24T00:41:50.441Z,21.37
2023-05-24T00:42:54.231Z,23.63
2023-05-24T00:43:57.601Z,23.91
2023-05-24T00:45:01.349Z,24.11
2023-05-24T00:46:29.550Z,22.32
2023-05-24T00:47:33.665Z,23.86
2023-05-24T00:48:37.117Z,22.79
2023-05-24T00:49:41.503Z,19.49
2023-05-24T00:50:45.203Z,21.57
2023-05-24T00:51:50.622Z,23.88
2023-05-24T00:52:55.028Z,22.53
2023-05-24T00:53:58.483Z,20.39
2023-05-24T00:55:02.769Z,20.19
2023-05-24T00:56:07.671Z,21.60
2023-05-24T00:57:14.733Z,23.27
2023-05-24T00:58:18.171Z,23.84
2023-05-24T00:59:21.832Z,22.31
2023-05-24T01:00:25.501Z,23.53
2023-05-24T01:01:36.052Z,21.24
2023-05-24T01:02:39.830Z,21.67
2023-05-24T01:03:44.909Z,22.91
2023-05-24T01:04:49.736Z,21.02
2023-05-24T01:05:53.231Z,23.92
2023-05-24T01:07:00.047Z,24.63
2023-05-24T01:08:15.773Z,22.74
2023-05-24T01:09:45.492Z,23.50
2023-05-24T01:11:03.493Z,22.29
2023-05-24T01:12:42.484Z,24.62
2023-05-24T01:14:08.140Z,23.26
2023-05-24T01:15:43.474Z,24.81
2023-05-24T01:16:52.435Z,24.91
2023-05-24T01:18:08.464Z,22.01
2023-05-24T01:19:34.593Z,21.35
2023-05-24T01:20:41.974Z,20.66
2023-05-24T01:22:12.753Z,23.46
2023-05-24T01:23:51.097Z,23.05
2023-05-24T01:25:08.257Z,24.82
2023-05-24T01:26:52.593Z,23.56
2023-05-24T01:27:56.690Z,24.82
2023-05-24T01:29:03.414Z,23.81
2023-05-24T01:30:08.578Z,23.32
2023-05-24T01:31:14.274Z,21.06
2023-05-24T01:32:20.017Z,23.73
2023-05-24T01:33:23.398Z,23.28
2023-05-24T01:34:27.193Z,22.24
2023-05-24T01:35:30.437Z,23.89
2023-05-24T01:36:34.292Z,22.66
2023-05-24T01:37:37.657Z,20.52
2023-05-24T01:38:43.127Z,23.10
2023-05-24T01:39:47.335Z,22.29
2023-05-24T01:41:00.198Z,23.31
2023-05-24T01:42:21.908Z,23.71
2023-05-24T01:44:16.976Z,24.60
2023-05-24T01:45:35.851Z,22.58
2023-05-24T01:46:40.149Z,19.81
2023-05-24T01:48:03.615Z,21.24
2023-05-24T01:49:18.701Z,22.60
2023-05-24T01:50:29.619Z,23.57
2023-05-24T01:51:46.971Z,24.36
2023-05-24T01:52:53.434Z,23.64
2023-05-24T01:54:00.216Z,24.01
2023-05-24T01:55:06.047Z,21.03
2023-05-24T01:56:12.990Z,21.40
2023-05-24T01:57:17.937Z,21.89
2023-05-24T01:58:27.053Z,21.66
2023-05-24T01:59:33.208Z,20.77
2023-05-24T02:00:37.332Z,21.00
2023-05-24T02:01:41.653Z,19.26
2023-05-24T02:02:45.526Z,19.76
2023-05-24T02:03:49.190Z,18.83
2023-05-24T02:04:52.963Z,20.12
2023-05-24T02:05:56.170Z,19.67
2023-05-24T02:06:59.538Z,19.74
2023-05-24T02:08:02.867Z,20.54
2023-05-24T02:09:06.449Z,21.87
2023-05-24T02:10:10.439Z,20.94
2023-05-24T02:11:13.690Z,21.98
2023-05-24T02:12:17.237Z,20.61
2023-05-24T02:13:20.581Z,20.96
2023-05-24T02:14:25.173Z,18.96
2023-05-24T02:15:31.068Z,19.59
2023-05-24T02:16:34.515Z,18.53
2023-05-24T02:17:39.026Z,21.68
2023-05-24T02:18:45.499Z,20.24
2023-05-24T02:19:50.238Z,19.50
2023-05-24T02:20:53.826Z,20.47
2023-05-24T02:21:58.757Z,17.09
2023-05-24T02:23:02.056Z,16.85
2023-05-24T02:24:07.604Z,19.87
2023-05-24T02:25:11.129Z,17.64
2023-05-24T02:26:15.428Z,15.57
2023-05-24T02:27:18.889Z,17.97
2023-05-24T02:28:22.422Z,16.10
2023-05-24T02:29:26.237Z,17.80
2023-05-24T02:30:29.658Z,16.87
2023-05-24T02:31:33.318Z,17.20
2023-05-24T02:32:37.243Z,15.17
2023-05-24T02:33:41.292Z,16.23
2023-05-24T02:34:45.171Z,19.50
2023-05-24T02:35:48.509Z,15.73
2023-05-24T02:36:54.979Z,15.27
2023-05-24T02:37:59.368Z,15.30
2023-05-24T02:39:04.699Z,16.47
2023-05-24T02:40:08.657Z,15.62
2023-05-24T02:41:21.316Z,15.47
2023-05-24T02:42:24.694Z,17.22
2023-05-24T02:43:28.009Z,15.56
2023-05-24T02:44:31.393Z,17.98
2023-05-24T02:45:34.695Z,18.16
2023-05-24T02:46:37.957Z,17.69
2023-05-24T02:47:41.361Z,17.91
2023-05-24T02:48:44.570Z,16.49
2023-05-24T02:49:47.843Z,15.27
2023-05-24T02:50:51.132Z,16.07
2023-05-24T02:51:54.354Z,18.50
2023-05-24T02:52:57.564Z,17.00
2023-05-24T02:54:01.866Z,13.01
2023-05-24T02:55:06.201Z,15.66
2023-05-24T02:56:10.523Z,16.26
2023-05-24T02:57:14.346Z,14.12
2023-05-24T02:58:19.989Z,15.80
2023-05-24T02:59:26.297Z,16.23
2023-05-24T03:00:29.728Z,15.94
2023-05-24T03:01:35.252Z,16.86
2023-05-24T03:02:39.318Z,15.25
2023-05-24T03:03:43.082Z,16.82
2023-05-24T03:04:46.683Z,16.46
2023-05-24T03:05:50.239Z,15.49
2023-05-24T03:06:54.404Z,17.20
2023-05-24T03:07:59.168Z,16.44
2023-05-24T03:09:02.636Z,16.33
2023-05-24T03:10:06.715Z,17.49
2023-05-24T03:11:09.977Z,15.05
2023-05-24T03:12:14.779Z,16.60
2023-05-24T03:13:18.009Z,16.56
2023-05-24T03:14:23.465Z,13.59
2023-05-24T03:15:27.822Z,16.03
2023-05-24T03:16:32.676Z,14.19
2023-05-24T03:17:36.313Z,17.64
2023-05-24T03:18:39.623Z,14.68
2023-05-24T03:19:43.053Z,15.38
2023-05-24T03:20:46.384Z,15.18
2023-05-24T03:21:49.833Z,16.77
2023-05-24T03:22:53.845Z,15.06
2023-05-24T03:23:57.107Z,15.73
2023-05-24T03:25:00.429Z,15.13
2023-05-24T03:26:03.777Z,15.66
2023-05-24T03:27:07.866Z,14.35
2023-05-24T03:28:11.754Z,14.68
2023-05-24T03:29:15.163Z,15.84
2023-05-24T03:30:19.328Z,16.00
2023-05-24T03:31:28.899Z,16.86
2023-05-24T03:32:32.379Z,17.21
2023-05-24T03:33:35.733Z,15.21
2023-05-24T03:34:38.949Z,15.40
2023-05-24T03:35:42.723Z,15.54
2023-05-24T03:36:46.405Z,18.22
2023-05-24T03:37:50.217Z,18.98
2023-05-24T03:38:54.203Z,15.99
2023-05-24T03:39:58.703Z,15.00
2023-05-24T03:41:17.698Z,14.84
2023-05-24T03:42:21.961Z,14.92
2023-05-24T03:43:25.220Z,14.72
2023-05-24T03:44:32.517Z,14.87
2023-05-24T03:45:39.745Z,17.16
2023-05-24T03:46:43.499Z,17.15
2023-05-24T03:47:46.963Z,14.77
2023-05-24T03:48:50.691Z,16.90
2023-05-24T03:49:53.989Z,16.43
2023-05-24T03:50:57.281Z,16.90
2023-05-24T03:52:00.575Z,15.58
2023-05-24T03:53:04.288Z,15.88
2023-05-24T03:54:07.693Z,15.31
2023-05-24T03:55:11.058Z,15.92
2023-05-24T03:56:14.555Z,15.96
2023-05-24T03:57:18.655Z,13.18
2023-05-24T03:58:23.214Z,14.24
2023-05-24T03:59:27.082Z,15.82
2023-05-24T04:00:31.426Z,14.69
2023-05-24T04:01:37.367Z,15.53
2023-05-24T04:02:40.756Z,16.91
2023-05-24T04:04:30.031Z,16.32
2023-05-24T04:05:34.832Z,13.36
2023-05-24T04:06:38.872Z,13.44
2023-05-24T04:07:43.101Z,14.67
2023-05-24T04:08:46.755Z,16.17
2023-05-24T04:09:50.073Z,13.36
2023-05-24T04:10:53.439Z,16.76
2023-05-24T04:11:56.619Z,15.35
2023-05-24T04:13:01.452Z,14.21
2023-05-24T04:14:04.741Z,16.37
2023-05-24T04:15:09.059Z,13.33
2023-05-24T04:16:14.752Z,13.50
2023-05-24T04:17:19.145Z,15.37
2023-05-24T04:18:22.695Z,13.62
2023-05-24T04:19:26.574Z,15.08
2023-05-24T04:20:30.233Z,14.72
2023-05-24T04:21:34.103Z,15.36
2023-05-24T04:22:37.556Z,15.22
2023-05-24T04:23:41.035Z,14.82
2023-05-24T04:24:44.337Z,13.68
2023-05-24T04:25:47.901Z,15.71
2023-05-24T04:26:52.379Z,14.47
2023-05-24T04:27:56.894Z,15.42
2023-05-24T04:29:02.452Z,15.68
2023-05-24T04:30:06.509Z,16.68
2023-05-24T04:31:12.537Z,15.28
2023-05-24T04:32:17.300Z,15.52
2023-05-24T04:33:21.570Z,15.27
2023-05-24T04:34:24.872Z,18.64
2023-05-24T04:35:28.253Z,18.00
2023-05-24T04:36:34.674Z,18.19
2023-05-24T04:37:38.017Z,16.55
2023-05-24T04:38:41.692Z,16.04
2023-05-24T04:39:48.203Z,17.57
2023-05-24T04:40:51.465Z,17.36
2023-05-24T04:41:55.950Z,17.31
2023-05-24T04:42:59.365Z,18.06
2023-05-24T04:44:03.626Z,17.63
2023-05-24T04:45:07.859Z,19.79
2023-05-24T04:46:11.236Z,18.31
2023-05-24T04:47:15.349Z,18.86
2023-05-24T04:48:18.932Z,18.24
2023-05-24T04:49:23.404Z,16.85
2023-05-24T04:50:27.521Z,18.42
2023-05-24T04:51:30.868Z,21.22
2023-05-24T04:52:37.145Z,17.65
2023-05-24T04:53:40.804Z,19.88
2023-05-24T04:54:44.154Z,17.73
2023-05-24T04:55:48.128Z,18.44
2023-05-24T04:56:51.551Z,20.88
2023-05-24T04:57:54.803Z,18.19
2023-05-24T04:58:58.008Z,19.85
2023-05-24T05:00:01.535Z,20.34
2023-05-24T05:01:04.863Z,17.95
2023-05-24T05:02:08.190Z,19.63
2023-05-24T05:03:12.255Z,20.48
2023-05-24T05:04:15.673Z,18.87
2023-05-24T05:05:18.999Z,18.60
2023-05-24T05:06:22.777Z,18.18
2023-05-24T05:07:26.045Z,17.29
2023-05-24T05:08:29.387Z,18.38
2023-05-24T05:09:32.784Z,18.75
2023-05-24T05:10:36.931Z,17.55
2023-05-24T05:11:40.557Z,19.19
2023-05-24T05:12:43.880Z,17.67
2023-05-24T05:13:47.364Z,16.67
2023-05-24T05:14:51.382Z,18.40
2023-05-24T05:15:54.685Z,18.28
2023-05-24T05:16:58.193Z,17.88
2023-05-24T05:18:01.665Z,15.41
2023-05-24T05:19:05.553Z,15.65
2023-05-24T05:20:09.453Z,17.24
2023-05-24T05:21:13.197Z,17.53
2023-05-24T05:22:17.274Z,18.19
2023-05-24T05:23:20.571Z,17.08
2023-05-24T05:24:24.066Z,16.89
2023-05-24T05:25:27.497Z,18.08
2023-05-24T05:26:32.557Z,16.63
2023-05-24T05:27:36.336Z,18.69
2023-05-24T05:28:39.593Z,18.37
2023-05-24T05:29:43.106Z,17.57
2023-05-24T05:30:46.518Z,18.08
2023-05-24T05:31:49.881Z,17.98
2023-05-24T05:32:53.262Z,16.36
2023-05-24T05:33:56.739Z,19.88
2023-05-24T05:35:00.001Z,17.88
2023-05-24T05:36:03.323Z,18.29
2023-05-24T05:37:06.800Z,17.18
2023-05-24T05:38:10.055Z,14.38
2023-05-24T05:39:13.433Z,18.59
2023-05-24T05:40:17.425Z,19.41
2023-05-24T05:41:20.752Z,18.88
2023-05-24T05:42:24.154Z,19.01
2023-05-24T05:43:27.734Z,18.17
2023-05-24T05:44:30.946Z,16.99
2023-05-24T05:45:34.157Z,21.55
2023-05-24T05:46:37.576Z,17.02
2023-05-24T05:47:41.513Z,17.80
2023-05-24T05:48:46.390Z,18.69
2023-05-24T05:49:49.832Z,18.94
2023-05-24T05:50:53.387Z,18.59
2023-05-24T05:51:57.013Z,18.91
2023-05-24T05:53:00.405Z,21.02
2023-05-24T05:54:03.878Z,18.29
2023-05-24T05:55:07.913Z,17.51
2023-05-24T05:56:11.148Z,17.31
2023-05-24T05:57:14.666Z,19.85
2023-05-24T05:58:17.995Z,17.05
2023-05-24T05:59:21.423Z,18.08
2023-05-24T06:00:24.749Z,17.37
2023-05-24T06:01:28.082Z,17.98
2023-05-24T06:02:31.487Z,17.59
2023-05-24T06:03:35.037Z,16.50
2023-05-24T06:04:38.621Z,16.56
2023-05-24T06:05:42.613Z,17.36
2023-05-24T06:06:50.228Z,18.29
2023-05-24T06:07:53.507Z,15.91
2023-05-24T06:08:56.920Z,16.15
2023-05-24T06:10:00.375Z,16.57
2023-05-24T06:11:04.551Z,18.81
2023-05-24T06:12:08.044Z,18.36
2023-05-24T06:13:11.669Z,17.43
2023-05-24T06:14:19.253Z,16.65
2023-05-24T06:15:23.701Z,15.83
2023-05-24T06:16:27.287Z,17.28
2023-05-24T06:17:30.916Z,16.60
2023-05-24T06:18:35.161Z,15.63
2023-05-24T06:19:39.274Z,18.24
2023-05-24T06:20:42.625Z,18.05
2023-05-24T06:21:49.159Z,16.10
2023-05-24T06:22:52.957Z,17.28
2023-05-24T06:23:58.903Z,18.20
2023-05-24T06:25:02.641Z,16.38
2023-05-24T06:26:06.354Z,20.15
2023-05-24T06:27:09.545Z,19.84
2023-05-24T06:28:12.875Z,19.27
2023-05-24T06:29:16.230Z,17.67
2023-05-24T06:30:19.927Z,19.59
2023-05-24T06:31:23.296Z,18.41
2023-05-24T06:32:26.769Z,19.09
2023-05-24T06:33:30.344Z,18.37
2023-05-24T06:34:33.620Z,18.06
2023-05-24T06:35:36.912Z,19.13
2023-05-24T06:36:43.442Z,16.42
2023-05-24T06:37:46.892Z,20.84
2023-05-24T06:38:50.219Z,18.86
2023-05-24T06:39:53.477Z,19.07
2023-05-24T06:40:56.887Z,18.37
2023-05-24T06:42:00.192Z,18.45
2023-05-24T06:43:05.551Z,19.88
2023-05-24T06:44:08.841Z,18.27
2023-05-24T06:45:12.678Z,20.37
2023-05-24T06:46:17.179Z,20.86
2023-05-24T06:47:20.557Z,19.05
2023-05-24T06:48:24.034Z,17.06
2023-05-24T06:49:28.264Z,18.20
2023-05-24T06:50:31.943Z,19.05
2023-05-24T06:51:35.413Z,21.08
2023-05-24T06:52:38.812Z,19.62
2023-05-24T06:53:42.322Z,19.08
2023-05-24T06:54:45.701Z,20.18
2023-05-24T06:55:48.899Z,19.35
2023-05-24T06:56:52.279Z,20.27
2023-05-24T06:57:55.756Z,21.51
2023-05-24T06:59:00.709Z,18.97
2023-05-24T07:00:09.432Z,20.20
2023-05-24T07:01:13.127Z,19.61
2023-05-24T07:02:16.906Z,20.19
2023-05-24T07:03:20.295Z,20.86
2023-05-24T07:04:23.688Z,20.25
2023-05-24T07:05:26.963Z,22.19
2023-05-24T07:06:30.325Z,16.33
2023-05-24T07:07:34.455Z,18.72
2023-05-24T07:08:37.759Z,19.11
2023-05-24T07:09:42.909Z,19.44
2023-05-24T07:10:46.246Z,20.16
2023-05-24T07:11:49.590Z,19.35
2023-05-24T07:12:53.015Z,20.78
2023-05-24T07:13:56.491Z,21.39
2023-05-24T07:14:59.711Z,20.82
2023-05-24T07:16:03.071Z,20.42
2023-05-24T07:17:06.921Z,19.00
2023-05-24T07:18:10.848Z,18.77
2023-05-24T07:19:14.358Z,20.94
2023-05-24T07:20:17.707Z,19.88
2023-05-24T07:21:21.120Z,20.41
2023-05-24T07:22:26.055Z,18.72
2023-05-24T07:23:29.488Z,18.33
2023-05-24T07:24:32.741Z,18.34
2023-05-24T07:25:36.020Z,18.95
2023-05-24T07:26:40.113Z,17.44
2023-05-24T07:27:44.338Z,17.35
2023-05-24T07:28:47.875Z,20.89
2023-05-24T07:29:51.304Z,20.23
2023-05-24T07:30:54.863Z,18.56
2023-05-24T07:31:59.010Z,20.26
2023-05-24T07:33:03.144Z,19.71
2023-05-24T07:34:06.502Z,18.95
2023-05-24T07:35:13.696Z,20.13
2023-05-24T07:36:16.901Z,20.52
2023-05-24T07:37:20.263Z,18.81
2023-05-24T07:38:23.531Z,17.94
2023-05-24T07:39:27.977Z,18.79
2023-05-24T07:40:31.365Z,19.72
2023-05-24T07:41:34.695Z,21.96
2023-05-24T07:42:39.805Z,19.24
2023-05-24T07:43:43.083Z,18.01
2023-05-24T07:44:46.564Z,19.14
2023-05-24T07:45:49.757Z,17.39
2023-05-24T07:46:53.291Z,18.77
2023-05-24T07:47:57.582Z,21.65
2023-05-24T07:49:01.108Z,20.82
2023-05-24T07:50:04.982Z,21.27
2023-05-24T07:51:08.326Z,19.19
2023-05-24T07:52:11.710Z,20.03
2023-05-24T07:53:16.048Z,19.90
2023-05-24T07:54:19.463Z,19.92
2023-05-24T07:55:22.939Z,21.87
2023-05-24T07:56:26.432Z,19.17
2023-05-24T07:57:30.111Z,19.81
2023-05-24T07:58:33.440Z,22.68
2023-05-24T07:59:36.900Z,21.14
2023-05-24T08:00:40.405Z,21.77
2023-05-24T08:01:44.169Z,20.99
2023-05-24T08:02:47.573Z,22.11
2023-05-24T08:03:51.009Z,19.12
2023-05-24T08:04:54.381Z,21.11
2023-05-24T08:05:58.214Z,21.29
2023-05-24T08:07:03.548Z,21.33
2023-05-24T08:08:06.815Z,20.88
2023-05-24T08:09:10.096Z,23.10
2023-05-24T08:10:14.301Z,24.62
2023-05-24T08:11:17.994Z,18.59
2023-05-24T08:12:21.334Z,19.23
2023-05-24T08:13:25.276Z,19.88
2023-05-24T08:14:28.707Z,22.54
2023-05-24T08:15:32.385Z,19.13
2023-05-24T08:16:35.597Z,19.25
2023-05-24T08:17:41.964Z,21.08
2023-05-24T08:18:45.681Z,22.18
2023-05-24T08:19:49.037Z,20.80
2023-05-24T08:20:52.688Z,21.06
2023-05-24T08:21:58.046Z,19.32
2023-05-24T08:23:02.226Z,22.65
2023-05-24T08:24:07.607Z,20.55
2023-05-24T08:25:12.880Z,21.23
2023-05-24T08:26:19.814Z,21.12
2023-05-24T08:27:23.311Z,31.05
2023-05-24T08:28:28.014Z,21.56
2023-05-24T08:29:31.650Z,20.96
2023-05-24T08:30:35.915Z,20.88
2023-05-24T08:31:39.259Z,21.54
2023-05-24T08:32:43.035Z,18.76
2023-05-24T08:33:46.497Z,20.65
2023-05-24T08:34:50.020Z,21.97
2023-05-24T08:35:53.338Z,20.62
2023-05-24T08:36:56.772Z,21.58
2023-05-24T08:38:00.058Z,20.57
2023-05-24T08:39:03.374Z,19.79
2023-05-24T08:40:10.438Z,18.85
2023-05-24T08:41:13.684Z,22.37
2023-05-24T08:42:17.843Z,18.57
2023-05-24T08:43:22.640Z,20.90
2023-05-24T08:44:26.389Z,19.05
2023-05-24T08:45:37.800Z,20.05
2023-05-24T08:46:41.379Z,20.47
2023-05-24T08:47:45.320Z,20.38
2023-05-24T08:48:49.385Z,20.34
2023-05-24T08:49:53.858Z,22.26
2023-05-24T08:50:59.090Z,18.73
2023-05-24T08:52:04.590Z,22.45
2023-05-24T08:53:08.089Z,21.97
2023-05-24T08:54:13.065Z,19.54
2023-05-24T08:55:17.510Z,20.86
2023-05-24T08:56:20.930Z,21.89
2023-05-24T08:57:24.766Z,25.59
2023-05-24T08:58:28.070Z,21.03
2023-05-24T08:59:31.452Z,20.74
2023-05-24T09:00:34.864Z,19.26
2023-05-24T09:01:42.515Z,20.89
2023-05-24T09:02:48.195Z,22.02
2023-05-24T09:03:52.585Z,21.23
2023-05-24T09:04:57.952Z,21.07
2023-05-24T09:06:02.893Z,20.10
2023-05-24T09:07:08.266Z,25.12
2023-05-24T09:08:14.814Z,20.86
2023-05-24T09:09:22.252Z,20.20
2023-05-24T09:11:34.121Z,22.62
2023-05-24T09:12:39.949Z,19.95
2023-05-24T09:13:47.087Z,20.05
2023-05-24T09:14:51.278Z,19.59
2023-05-24T09:15:54.819Z,21.68
2023-05-24T09:16:59.394Z,23.08
2023-05-24T09:18:02.937Z,22.20
2023-05-24T09:19:06.190Z,22.32
2023-05-24T09:20:11.485Z,21.57
2023-05-24T09:21:15.150Z,20.68
2023-05-24T09:22:24.090Z,22.05
2023-05-24T09:23:28.813Z,22.92
2023-05-24T09:24:32.564Z,23.72
2023-05-24T09:25:36.072Z,21.16
2023-05-24T09:26:39.344Z,21.79
2023-05-24T09:27:47.389Z,21.35
2023-05-24T09:28:56.711Z,21.06
2023-05-24T09:30:00.324Z,21.15
2023-05-24T09:31:07.386Z,20.68
2023-05-24T09:32:11.606Z,21.47
2023-05-24T09:33:14.946Z,20.01
2023-05-24T09:34:18.339Z,23.36
2023-05-24T09:35:21.568Z,23.56
2023-05-24T09:36:24.863Z,21.60
2023-05-24T09:37:32.655Z,18.74
2023-05-24T09:38:37.152Z,22.11
2023-05-24T09:39:48.808Z,19.34
2023-05-24T09:41:04.165Z,20.16
2023-05-24T09:42:07.451Z,23.40
2023-05-24T09:43:11.547Z,20.97
2023-05-24T09:44:16.107Z,21.38
2023-05-24T09:45:19.485Z,20.34
2023-05-24T09:46:23.591Z,22.64
2023-05-24T09:47:34.318Z,19.72
2023-05-24T09:48:37.717Z,20.18
2023-05-24T09:49:41.029Z,21.69
2023-05-24T09:50:48.384Z,20.88
2023-05-24T09:51:53.620Z,23.07
2023-05-24T09:52:56.987Z,21.19
2023-05-24T09:54:05.203Z,19.46
2023-05-24T09:55:15.932Z,21.55
2023-05-24T09:56:20.076Z,21.42
2023-05-24T09:57:23.658Z,20.40
2023-05-24T09:58:36.070Z,22.31
2023-05-24T09:59:41.620Z,17.88
2023-05-24T10:00:45.297Z,20.35
2023-05-24T10:01:54.501Z,22.01
2023-05-24T10:03:08.127Z,19.73
2023-05-24T10:04:11.604Z,18.79
2023-05-24T10:05:15.077Z,20.18
2023-05-24T10:06:19.536Z,20.94
2023-05-24T10:07:23.331Z,20.13
2023-05-24T10:08:27.575Z,22.52
2023-05-24T10:09:34.757Z,21.40
2023-05-24T10:10:38.098Z,21.00
2023-05-24T10:11:43.037Z,23.71
2023-05-24T10:12:48.343Z,18.80
2023-05-24T10:13:51.912Z,19.50
2023-05-24T10:14:58.981Z,19.89
2023-05-24T10:16:02.721Z,21.09
2023-05-24T10:17:08.398Z,20.30
2023-05-24T10:18:13.887Z,16.89
2023-05-24T10:19:17.789Z,18.84
2023-05-24T10:20:21.749Z,20.09
2023-05-24T10:21:26.904Z,19.97
2023-05-24T10:22:30.789Z,20.55
2023-05-24T10:23:37.556Z,21.03
2023-05-24T10:24:47.425Z,19.01
2023-05-24T10:26:01.137Z,21.12
2023-05-24T10:27:10.089Z,20.20
2023-05-24T10:28:16.864Z,19.52
2023-05-24T10:29:43.293Z,18.55
2023-05-24T10:31:11.417Z,20.14
2023-05-24T10:32:19.612Z,19.02
2023-05-24T10:33:25.761Z,18.97
2023-05-24T10:34:31.460Z,18.95
2023-05-24T10:35:38.845Z,19.97
2023-05-24T10:36:42.701Z,18.33
2023-05-24T10:37:48.233Z,18.47
2023-05-24T10:38:52.485Z,19.54
2023-05-24T10:39:56.163Z,17.18
2023-05-24T10:40:59.698Z,22.59
2023-05-24T10:42:10.615Z,19.66
2023-05-24T10:43:14.261Z,20.54
2023-05-24T10:44:21.936Z,21.19
2023-05-24T10:45:34.150Z,20.64
2023-05-24T10:46:37.498Z,20.85
2023-05-24T10:47:40.871Z,20.13
2023-05-24T10:48:44.447Z,19.08
2023-05-24T10:49:53.651Z,17.75
2023-05-24T10:50:58.079Z,20.31
2023-05-24T10:52:10.457Z,18.14
2023-05-24T10:53:16.380Z,19.75
2023-05-24T10:54:25.751Z,18.00
2023-05-24T10:55:28.978Z,19.88
2023-05-24T10:56:32.230Z,19.46
2023-05-24T10:57:36.180Z,15.62
2023-05-24T10:59:00.447Z,19.10
2023-05-24T11:01:35.688Z,18.99
2023-05-24T11:02:39.197Z,17.59
2023-05-24T11:03:42.988Z,18.76
2023-05-24T11:04:50.029Z,18.65
2023-05-24T11:05:56.142Z,17.18
2023-05-24T11:07:04.668Z,18.21
2023-05-24T11:08:08.275Z,19.74
2023-05-24T11:09:12.044Z,17.60
2023-05-24T11:10:20.094Z,18.04
2023-05-24T11:11:31.354Z,19.39
2023-05-24T11:12:39.545Z,18.04
2023-05-24T11:13:43.867Z,18.81
2023-05-24T11:14:52.973Z,18.42
2023-05-24T11:15:57.871Z,16.69
2023-05-24T11:17:01.757Z,17.75
2023-05-24T11:18:13.377Z,17.23
2023-05-24T11:19:33.965Z,16.38
2023-05-24T11:20:37.480Z,18.46
2023-05-24T11:21:44.498Z,16.46
2023-05-24T11:22:48.034Z,15.95
2023-05-24T11:23:52.181Z,18.38
2023-05-24T11:24:55.967Z,18.87
2023-05-24T11:25:59.897Z,15.33
2023-05-24T11:27:04.392Z,18.24
2023-05-24T11:28:11.506Z,16.61
2023-05-24T11:29:23.200Z,16.34
2023-05-24T11:30:27.242Z,16.58
2023-05-24T11:31:31.000Z,18.05
2023-05-24T11:32:34.374Z,16.68
2023-05-24T11:33:43.444Z,17.10
2023-05-24T11:34:50.483Z,16.11
2023-05-24T11:35:55.670Z,16.20
2023-05-24T11:37:00.993Z,17.39
2023-05-24T11:38:04.403Z,18.11
2023-05-24T11:39:11.009Z,17.14
2023-05-24T11:40:17.013Z,17.42
2023-05-24T11:41:20.939Z,17.64
2023-05-24T11:42:24.424Z,16.45
2023-05-24T11:43:27.874Z,17.29
2023-05-24T11:44:33.532Z,14.94
2023-05-24T11:45:37.637Z,15.24
2023-05-24T11:46:44.033Z,17.05
2023-05-24T11:47:49.301Z,18.14
2023-05-24T11:48:59.720Z,16.70
2023-05-24T11:50:03.314Z,15.88
2023-05-24T11:51:07.747Z,19.29
2023-05-24T11:52:10.967Z,18.33
2023-05-24T11:53:16.283Z,16.32
2023-05-24T11:54:20.635Z,15.41
2023-05-24T11:55:27.877Z,16.24
2023-05-24T11:56:33.901Z,17.86
2023-05-24T11:57:47.020Z,17.67
2023-05-24T11:58:51.923Z,16.34
2023-05-24T11:59:56.109Z,17.20
2023-05-24T12:00:59.411Z,18.23
2023-05-24T12:02:06.252Z,17.30
2023-05-24T12:03:10.942Z,17.55
2023-05-24T12:04:14.853Z,17.97
2023-05-24T12:05:20.309Z,15.32
2023-05-24T12:06:23.666Z,15.57
2023-05-24T12:07:26.907Z,15.84
2023-05-24T12:08:30.847Z,17.05
2023-05-24T12:09:34.848Z,17.29
2023-05-24T12:10:40.835Z,19.27
2023-05-24T12:11:47.079Z,16.94
2023-05-24T12:12:51.136Z,16.08
2023-05-24T12:13:54.358Z,15.93
2023-05-24T12:14:58.142Z,14.36
2023-05-24T12:16:01.483Z,17.87
2023-05-24T12:17:04.974Z,17.28
2023-05-24T12:18:22.636Z,15.91
2023-05-24T12:19:33.631Z,17.70
2023-05-24T12:20:39.785Z,18.03
2023-05-24T12:21:43.488Z,17.02
2023-05-24T12:22:53.739Z,16.52
2023-05-24T12:23:57.097Z,17.61
2023-05-24T12:25:00.426Z,16.64
2023-05-24T12:26:04.318Z,16.95
2023-05-24T12:27:08.342Z,15.32
2023-05-24T12:28:12.659Z,16.65
2023-05-24T12:29:16.642Z,15.63
2023-05-24T12:30:24.798Z,17.24
2023-05-24T12:31:28.447Z,15.12
2023-05-24T12:32:32.329Z,13.83
2023-05-24T12:33:36.485Z,14.11
2023-05-24T12:34:42.533Z,14.25
2023-05-24T12:35:47.418Z,16.51
2023-05-24T12:36:50.854Z,14.69
2023-05-24T12:38:03.314Z,15.18
2023-05-24T12:39:20.810Z,13.82
2023-05-24T12:40:24.718Z,18.16
2023-05-24T12:41:31.456Z,13.98
2023-05-24T12:42:34.882Z,14.90
2023-05-24T12:43:38.150Z,16.24
2023-05-24T12:44:41.495Z,20.53
2023-05-24T12:45:44.923Z,15.07
2023-05-24T12:46:48.274Z,14.37
2023-05-24T12:47:53.100Z,15.71
2023-05-24T12:48:56.424Z,14.28
2023-05-24T12:50:00.332Z,16.00
2023-05-24T12:51:04.711Z,15.70
2023-05-24T12:52:08.294Z,14.96
2023-05-24T12:53:12.421Z,17.50
2023-05-24T12:54:16.113Z,16.48
2023-05-24T12:55:20.820Z,15.52
2023-05-24T12:56:28.060Z,16.01
2023-05-24T12:57:31.886Z,15.40
2023-05-24T12:58:35.702Z,15.78
2023-05-24T12:59:38.978Z,16.93
2023-05-24T13:00:42.516Z,14.11
2023-05-24T13:01:51.236Z,16.45
2023-05-24T13:02:57.221Z,16.16
2023-05-24T13:04:00.478Z,15.14
2023-05-24T13:05:04.849Z,15.81
2023-05-24T13:06:09.478Z,16.58
2023-05-24T13:07:13.477Z,14.96
2023-05-24T13:08:17.055Z,15.15
2023-05-24T13:09:22.274Z,15.89
2023-05-24T13:10:26.720Z,15.06
2023-05-24T13:11:31.933Z,14.67
2023-05-24T13:12:35.439Z,16.68
2023-05-24T13:13:39.166Z,16.04
2023-05-24T13:14:42.545Z,13.77
2023-05-24T13:15:46.443Z,15.17
2023-05-24T13:16:49.938Z,13.89
2023-05-24T13:17:54.332Z,14.08
2023-05-24T13:18:58.011Z,14.27
2023-05-24T13:20:07.543Z,15.22
2023-05-24T13:21:12.353Z,13.50
2023-05-24T13:22:16.230Z,15.28
2023-05-24T13:23:19.865Z,13.33
2023-05-24T13:24:23.946Z,13.09
2023-05-24T13:25:28.237Z,12.74
2023-05-24T13:26:31.753Z,15.45
2023-05-24T13:27:36.039Z,14.31
2023-05-24T13:28:47.947Z,13.00
2023-05-24T13:30:02.466Z,12.51
2023-05-24T13:31:06.253Z,13.71
2023-05-24T13:32:13.267Z,14.24
2023-05-24T13:33:17.005Z,13.07
2023-05-24T13:34:20.453Z,14.22
2023-05-24T13:35:23.765Z,13.51
2023-05-24T13:36:27.333Z,14.84
2023-05-24T13:37:30.665Z,13.76
2023-05-24T13:38:34.178Z,13.46
2023-05-24T13:39:39.162Z,16.37
2023-05-24T13:40:43.150Z,14.56
2023-05-24T13:41:47.292Z,13.78
2023-05-24T13:42:50.616Z,16.17
2023-05-24T13:43:54.325Z,16.71
2023-05-24T13:44:58.618Z,15.93
2023-05-24T13:46:01.956Z,16.78
2023-05-24T13:47:05.495Z,13.84
2023-05-24T13:48:09.031Z,14.05
2023-05-24T13:49:13.697Z,15.90
2023-05-24T13:50:17.433Z,15.58
2023-05-24T13:51:20.781Z,13.77
2023-05-24T13:52:24.483Z,14.77
2023-05-24T13:53:28.678Z,16.78
2023-05-24T13:54:32.907Z,13.59
2023-05-24T13:55:39.353Z,13.07
2023-05-24T13:56:45.227Z,13.54
2023-05-24T13:57:52.107Z,14.05
2023-05-24T13:58:55.775Z,12.38
2023-05-24T14:00:00.965Z,14.40
2023-05-24T14:01:04.240Z,14.09
2023-05-24T14:02:07.789Z,14.35
2023-05-24T14:03:13.694Z,13.85